Time;durP1;ratioP1;P1;durP2;ratioP2;P2;SDS_P1;SDS_P2;PMS_P1;PMS_P2;Temp;Humidity;BMP_temperature;BMP_pressure;BME280_temperature;BME280_humidity;BME280_pressure;Samples;Min_cycle;Max_cycle;Signal;HPM_P1;HPM_P2
2022/05/27 00:07:47;;;;;;;4.47;1.35;;;16.60;99.90;;;;;;6654995;89;20286;-78
2022/05/27 00:18:28;;;;;;;3.15;1.40;;;16.30;99.90;;;;;;6668794;78;20245;-81
2022/05/27 00:28:29;;;;;;;2.83;1.62;;;16.10;99.90;;;;;;6669882;88;20180;-81
2022/05/27 00:38:29;;;;;;;3.20;1.40;;;16.20;99.90;;;;;;6669792;89;20204;-81
2022/05/27 00:48:32;;;;;;;2.40;1.48;;;16.20;99.90;;;;;;6669422;89;20179;-81
2022/05/27 00:58:39;;;;;;;3.45;1.30;;;16.20;99.90;;;;;;6670003;89;20203;-80
2022/05/27 01:08:40;;;;;;;3.97;1.40;;;16.30;99.90;;;;;;6670515;89;20216;-81
2022/05/27 01:29:47;;;;;;;3.25;1.10;;;16.30;99.90;;;;;;6671339;89;20191;-81
2022/05/27 01:40:24;;;;;;;3.55;1.40;;;16.20;99.90;;;;;;6671628;89;20176;-80
2022/05/27 01:50:33;;;;;;;2.87;1.10;;;16.10;99.90;;;;;;6667482;89;20294;-82
2022/05/27 02:00:35;;;;;;;4.37;1.23;;;16.20;99.90;;;;;;6673331;89;20191;-80
2022/05/27 02:10:54;;;;;;;4.40;1.48;;;16.10;99.90;;;;;;6673729;88;20301;-81
2022/05/27 02:21:00;;;;;;;3.78;1.42;;;15.80;99.90;;;;;;6670874;89;20745;-81
2022/05/27 02:31:07;;;;;;;2.75;1.35;;;15.80;99.90;;;;;;6673196;89;20203;-81
2022/05/27 02:41:20;;;;;;;3.90;1.40;;;15.80;99.90;;;;;;6669885;89;20237;-81
2022/05/27 02:51:36;;;;;;;3.53;1.12;;;15.70;99.90;;;;;;6670636;89;20335;-81
2022/05/27 03:01:37;;;;;;;3.35;1.45;;;15.70;99.90;;;;;;6667948;89;20295;-81
2022/05/27 03:11:55;;;;;;;4.80;1.30;;;15.60;99.90;;;;;;6617796;90;20258;-81
2022/05/27 03:22:13;;;;;;;2.70;1.12;;;15.60;99.90;;;;;;6638694;89;20971;-81
2022/05/27 03:32:37;;;;;;;4.68;1.20;;;15.60;99.90;;;;;;6665192;89;20327;-82
2022/05/27 03:42:40;;;;;;;3.58;1.37;;;15.60;99.90;;;;;;6652020;89;20224;-80
2022/05/27 03:52:43;;;;;;;3.53;1.60;;;15.20;99.90;;;;;;6651729;89;20210;-82
2022/05/27 04:02:44;;;;;;;3.70;1.27;;;14.90;99.90;;;;;;6654934;89;20220;-81
2022/05/27 04:12:45;;;;;;;2.25;1.30;;;14.80;99.90;;;;;;6662260;89;20184;-80
2022/05/27 04:22:46;;;;;;;3.75;1.08;;;14.70;99.90;;;;;;6672143;89;20212;-80
2022/05/27 04:32:46;;;;;;;2.87;0.90;;;14.90;99.90;;;;;;6668060;89;20611;-79
2022/05/27 04:42:47;;;;;;;1.70;0.70;;;15.10;99.90;;;;;;6671361;89;20188;-80
2022/05/27 04:52:47;;;;;;;3.92;0.70;;;15.30;99.90;;;;;;6667832;89;20217;-79
2022/05/27 05:02:48;;;;;;;0.80;0.43;;;15.20;99.90;;;;;;6673101;89;20320;-80
2022/05/27 05:12:50;;;;;;;1.70;0.60;;;15.10;99.90;;;;;;6669140;89;20209;-81
2022/05/27 05:22:51;;;;;;;0.85;0.50;;;14.90;99.90;;;;;;6669103;89;20216;-80
2022/05/27 05:32:52;;;;;;;1.40;0.70;;;14.80;99.90;;;;;;6671601;88;20234;-81
2022/05/27 05:42:52;;;;;;;1.92;0.70;;;14.80;99.90;;;;;;6669274;89;20199;-82
2022/05/27 05:52:53;;;;;;;1.83;0.70;;;14.90;99.90;;;;;;6674601;89;20246;-82
2022/05/27 06:02:54;;;;;;;1.87;0.90;;;14.90;99.90;;;;;;6655842;89;20212;-82
2022/05/27 06:22:58;;;;;;;1.30;0.70;;;14.90;99.90;;;;;;6725570;88;21054;-80
2022/05/27 06:43:18;;;;;;;1.92;0.98;;;14.80;99.90;;;;;;6707935;88;20263;-79
2022/05/27 06:53:18;;;;;;;2.10;0.70;;;14.80;99.90;;;;;;6708420;88;20235;-78
2022/05/27 07:03:19;;;;;;;1.50;0.70;;;14.90;99.90;;;;;;6706226;88;20273;-78
2022/05/27 07:13:20;;;;;;;1.15;0.50;;;14.90;99.90;;;;;;6706464;88;20226;-79
2022/05/27 07:23:20;;;;;;;1.62;0.40;;;14.90;99.90;;;;;;6706388;88;20190;-79
2022/05/27 07:33:21;;;;;;;1.48;0.65;;;15.10;99.90;;;;;;6706658;88;20207;-78
2022/05/27 07:43:21;;;;;;;2.25;1.00;;;14.90;99.90;;;;;;6653396;88;20326;-79
2022/05/27 07:53:23;;;;;;;2.15;1.75;;;14.70;99.90;;;;;;6635571;88;20710;-78
2022/05/27 08:03:24;;;;;;;3.10;2.00;;;14.30;99.90;;;;;;6668795;88;20173;-79
2022/05/27 08:13:26;;;;;;;4.50;2.10;;;14.40;99.90;;;;;;6708076;88;21938;-78
2022/05/27 08:23:26;;;;;;;3.15;1.87;;;14.30;99.90;;;;;;6730050;88;20259;-80
2022/05/27 08:43:52;;;;;;;4.05;2.45;;;14.30;99.90;;;;;;6723571;88;20663;-81
2022/05/27 08:54:21;;;;;;;4.20;2.20;;;14.30;99.90;;;;;;6729438;88;20189;-81
2022/05/27 09:04:44;;;;;;;3.60;1.80;;;14.40;99.90;;;;;;6708292;88;20181;-80
2022/05/27 09:14:50;;;;;;;3.90;2.37;;;14.50;99.90;;;;;;6711967;88;20198;-80
2022/05/27 09:25:19;;;;;;;3.50;2.20;;;14.70;99.90;;;;;;6711243;88;20325;-80
2022/05/27 09:35:25;;;;;;;4.10;2.78;;;15.10;99.90;;;;;;6710752;88;20216;-80
2022/05/27 09:45:25;;;;;;;3.58;2.12;;;15.40;99.90;;;;;;6727169;88;20738;-80
2022/05/27 09:55:46;;;;;;;2.97;2.30;;;16.00;99.90;;;;;;6727512;88;20266;-81
2022/05/27 10:06:01;;;;;;;3.95;2.60;;;16.40;99.90;;;;;;6693267;88;20303;-78
2022/05/27 10:16:10;;;;;;;4.23;3.00;;;16.90;99.90;;;;;;6658841;88;20206;-78
2022/05/27 10:26:29;;;;;;;5.40;2.90;;;17.90;99.90;;;;;;6710938;88;20181;-79
2022/05/27 10:36:54;;;;;;;5.10;2.97;;;18.40;99.90;;;;;;6710537;88;20199;-79
2022/05/27 10:46:56;;;;;;;;;;;19.10;99.90;;;;;;6710405;88;20260;-78
2022/05/27 11:08:14;;;;;;;7.75;4.40;;;19.10;99.90;;;;;;6710556;88;20175;-78
2022/05/27 11:18:39;;;;;;;5.22;3.58;;;20.50;99.90;;;;;;6689372;88;20365;-78
2022/05/27 11:28:58;;;;;;;7.32;3.47;;;22.20;99.90;;;;;;6709471;88;20304;-78
2022/05/27 11:39:50;;;;;;;7.07;3.58;;;21.30;99.90;;;;;;6704519;88;20217;-78
2022/05/27 11:49:59;;;;;;;6.12;3.60;;;20.60;99.90;;;;;;6690708;88;20209;-77
2022/05/27 12:00:12;;;;;;;8.40;4.15;;;19.50;99.90;;;;;;6695086;88;20205;-78
2022/05/27 12:10:26;;;;;;;6.97;3.62;;;18.90;99.90;;;;;;6721545;88;20189;-79
2022/05/27 12:30:42;;;;;;;4.90;2.80;;;19.90;99.90;;;;;;6649455;88;20640;-77
2022/05/27 12:40:55;;;;;;;4.70;2.65;;;22.20;99.90;;;;;;6630757;88;20289;-78
2022/05/27 12:51:00;;;;;;;5.18;2.10;;;22.10;99.50;;;;;;6634173;89;20189;-78
2022/05/27 13:01:04;;;;;;;5.32;2.10;;;22.60;97.40;;;;;;6648936;88;20201;-78
2022/05/27 13:11:04;;;;;;;3.45;1.90;;;22.90;95.40;;;;;;6647831;88;20189;-79
2022/05/27 13:21:12;;;;;;;6.12;1.83;;;22.70;92.10;;;;;;6644037;88;20290;-79
2022/05/27 13:31:20;;;;;;;5.07;1.50;;;22.50;92.50;;;;;;6635916;89;20296;-78
2022/05/27 13:41:23;;;;;;;4.97;1.80;;;23.10;91.30;;;;;;6659933;88;20710;-78
2022/05/27 13:51:26;;;;;;;4.63;1.53;;;22.00;86.10;;;;;;6640255;88;20302;-79
2022/05/27 14:01:33;;;;;;;3.95;1.50;;;21.30;91.40;;;;;;6627073;89;20240;-77
2022/05/27 14:11:33;;;;;;;5.50;1.52;;;22.50;87.40;;;;;;6638053;88;20182;-79
2022/05/27 14:32:13;;;;;;;8.55;1.90;;;22.40;84.00;;;;;;6637500;89;20285;-78
2022/05/27 14:42:16;;;;;;;5.40;1.60;;;22.40;79.50;;;;;;6636532;88;20198;-77
2022/05/27 14:52:36;;;;;;;5.03;1.23;;;22.00;78.90;;;;;;6632619;89;20216;-77
2022/05/27 15:02:43;;;;;;;3.53;1.58;;;22.50;77.20;;;;;;6632131;89;20236;-78
2022/05/27 15:12:44;;;;;;;4.62;1.83;;;23.20;75.80;;;;;;6641730;89;20189;-78
2022/05/27 15:22:56;;;;;;;6.28;1.95;;;22.60;75.10;;;;;;6642761;89;20320;-78
2022/05/27 15:33:09;;;;;;;5.05;1.62;;;22.70;75.30;;;;;;6635754;89;20334;-77
2022/05/27 15:43:16;;;;;;;6.82;1.70;;;22.10;75.00;;;;;;6636743;89;20258;-78
2022/05/27 15:53:21;;;;;;;7.78;2.28;;;21.70;76.60;;;;;;6636441;89;20215;-78
2022/05/27 16:03:23;;;;;;;;;;;21.50;74.90;;;;;;6632779;89;20357;-79
2022/05/27 16:13:24;;;;;;;6.82;1.80;;;21.30;75.10;;;;;;6626599;89;20080;-79
2022/05/27 16:23:25;;;;;;;5.90;1.70;;;21.90;76.20;;;;;;6623380;89;20294;-78
2022/05/27 16:33:25;;;;;;;7.37;2.00;;;21.20;74.80;;;;;;6631123;89;20593;-80
2022/05/27 16:43:26;;;;;;;6.23;1.67;;;20.60;76.40;;;;;;6640116;89;20238;-79
2022/05/27 16:53:27;;;;;;;4.47;1.40;;;20.30;75.40;;;;;;6630806;89;20554;-76
2022/05/27 17:03:28;;;;;;;9.55;1.80;;;20.00;75.20;;;;;;6624701;88;20182;-78
2022/05/27 17:13:29;;;;;;;9.20;1.77;;;20.20;74.20;;;;;;6634880;89;20204;-79
2022/05/27 17:23:30;;;;;;;7.78;1.45;;;20.00;74.10;;;;;;6635920;89;20207;-78
2022/05/27 17:33:30;;;;;;;9.70;1.70;;;20.30;75.60;;;;;;6646782;88;20580;-78
2022/05/27 17:43:32;;;;;;;13.62;2.90;;;20.00;74.80;;;;;;6639833;88;20238;-79
2022/05/27 17:53:32;;;;;;;6.15;1.35;;;20.40;74.30;;;;;;6627721;88;20206;-80
2022/05/27 18:03:34;;;;;;;5.17;1.20;;;20.50;71.80;;;;;;6630719;88;20198;-77
2022/05/27 18:13:36;;;;;;;6.35;1.30;;;19.50;71.50;;;;;;6622965;88;20643;-77
2022/05/27 18:23:37;;;;;;;6.45;1.42;;;19.10;71.50;;;;;;6620820;88;20205;-77
2022/05/27 18:33:37;;;;;;;6.87;1.70;;;19.90;73.40;;;;;;6631333;88;20235;-77
2022/05/27 18:43:38;;;;;;;9.70;1.62;;;19.00;78.40;;;;;;6625958;88;20296;-76
2022/05/27 18:53:42;;;;;;;11.35;1.70;;;17.40;83.50;;;;;;6636374;88;20203;-79
2022/05/27 19:03:43;;;;;;;11.85;2.03;;;16.80;87.10;;;;;;6647570;88;20198;-79
2022/05/27 19:13:44;;;;;;;9.85;1.60;;;16.40;88.20;;;;;;6622236;88;20195;-77
2022/05/27 19:23:52;;;;;;;10.05;2.30;;;16.00;90.70;;;;;;6621884;88;20210;-79
2022/05/27 19:33:53;;;;;;;4.60;1.20;;;15.60;91.50;;;;;;6631261;89;20189;-79
2022/05/27 19:43:53;;;;;;;7.93;1.50;;;15.20;92.50;;;;;;6637121;89;22192;-80
2022/05/27 19:53:57;;;;;;;6.80;1.50;;;14.90;93.50;;;;;;6634561;89;20193;-79
2022/05/27 20:14:17;;;;;;;9.10;1.10;;;14.40;94.90;;;;;;6626431;89;20281;-79
2022/05/27 20:24:18;;;;;;;5.70;1.30;;;14.30;95.30;;;;;;6636934;89;20360;-79
2022/05/27 20:34:18;;;;;;;7.18;1.08;;;14.00;96.20;;;;;;6624674;89;20186;-80
2022/05/27 20:44:20;;;;;;;7.15;1.45;;;13.70;98.00;;;;;;6636563;88;20186;-79
2022/05/27 20:54:20;;;;;;;8.15;1.10;;;13.60;98.70;;;;;;6640627;88;20193;-80
2022/05/27 21:04:24;;;;;;;4.57;1.00;;;13.30;99.90;;;;;;6625056;89;20196;-80
2022/05/27 21:14:25;;;;;;;7.07;1.40;;;13.20;99.90;;;;;;6636351;88;20646;-80
2022/05/27 21:24:29;;;;;;;6.53;1.33;;;12.90;99.90;;;;;;6621977;89;20230;-79
2022/05/27 21:34:30;;;;;;;9.65;1.50;;;12.80;99.90;;;;;;6624324;89;20227;-80
2022/05/27 21:44:31;;;;;;;10.65;1.60;;;12.60;99.90;;;;;;6642693;89;20780;-80
2022/05/27 21:54:31;;;;;;;5.50;1.12;;;12.40;99.90;;;;;;6640673;89;20635;-79
2022/05/27 22:04:32;;;;;;;7.28;1.50;;;12.20;99.90;;;;;;6651769;88;20662;-80
2022/05/27 22:14:32;;;;;;;6.35;1.20;;;12.10;99.90;;;;;;6685613;88;20198;-79
2022/05/27 22:24:36;;;;;;;7.53;1.40;;;12.00;99.90;;;;;;6639625;88;20216;-79
2022/05/27 22:34:36;;;;;;;6.20;1.10;;;11.80;99.90;;;;;;6658967;88;20234;-80
2022/05/27 22:44:37;;;;;;;5.53;1.00;;;11.70;99.90;;;;;;6641652;88;20714;-80
2022/05/27 22:54:38;;;;;;;6.00;1.15;;;11.50;99.90;;;;;;6631134;89;20220;-79
2022/05/27 23:04:43;;;;;;;6.82;1.17;;;11.50;99.90;;;;;;6640364;89;20219;-79
2022/05/27 23:25:03;;;;;;;4.70;0.88;;;11.30;99.90;;;;;;6640567;89;20196;-80
2022/05/27 23:35:04;;;;;;;8.45;1.50;;;11.30;99.90;;;;;;6639033;89;20278;-80
2022/05/27 23:45:05;;;;;;;5.87;1.20;;;11.30;99.90;;;;;;6628972;89;20282;-80
2022/05/27 23:55:06;;;;;;;8.43;1.40;;;11.20;99.90;;;;;;6623984;89;20671;-80
